sensor_id;sensor_type;location;lat;lon;timestamp;pressure;altitude;pressure_sealevel;temperature;humidity
40982;BME280;26708;50.304;19.028;2023-05-01T00:01:07;98618.59;;;7.66;46.87
40982;BME280;26708;50.304;19.028;2023-05-01T00:03:13;98552.25;;;7.25;47.04
40982;BME280;26708;50.304;19.028;2023-05-01T00:05:18;98711.13;;;8.12;47.22
40982;BME280;26708;50.304;19.028;2023-05-01T00:07:23;98527.63;;;6.96;47.28
40982;BME280;26708;50.304;19.028;2023-05-01T00:09:32;98568.84;;;7.37;47.39
40982;BME280;26708;50.304;19.028;2023-05-01T00:11:39;98871.16;;;9.11;47.66
40982;BME280;26708;50.304;19.028;2023-05-01T00:13:44;98634.31;;;7.75;47.35
40982;BME280;26708;50.304;19.028;2023-05-01T00:15:50;98813.41;;;8.72;47.44
40982;BME280;26708;50.304;19.028;2023-05-01T00:17:56;98698.81;;;7.96;47.46
40982;BME280;26708;50.304;19.028;2023-05-01T00:20:01;98642.84;;;7.62;47.64
40982;BME280;26708;50.304;19.028;2023-05-01T00:22:08;98770.34;;;8.25;47.78
40982;BME280;26708;50.304;19.028;2023-05-01T00:24:12;98561.69;;;7.18;47.70
40982;BME280;26708;50.304;19.028;2023-05-01T00:26:18;98668.16;;;7.72;48.02
40982;BME280;26708;50.304;19.028;2023-05-01T00:28:27;98641.84;;;7.49;48.34
40982;BME280;26708;50.304;19.028;2023-05-01T00:33:30;98825.38;;;8.51;48.79
40982;BME280;26708;50.304;19.028;2023-05-01T00:35:35;98692.47;;;7.71;48.87
40982;BME280;26708;50.304;19.028;2023-05-01T00:37:41;98654.00;;;7.50;48.85
40982;BME280;26708;50.304;19.028;2023-05-01T00:39:46;98599.69;;;7.04;48.87
40982;BME280;26708;50.304;19.028;2023-05-01T00:41:52;98643.34;;;7.25;48.93
40982;BME280;26708;50.304;19.028;2023-05-01T00:43:59;98662.44;;;7.27;49.10
40982;BME280;26708;50.304;19.028;2023-05-01T00:46:04;98677.34;;;7.41;49.37
40982;BME280;26708;50.304;19.028;2023-05-01T00:48:12;98674.00;;;7.53;49.20
40982;BME280;26708;50.304;19.028;2023-05-01T00:50:19;98567.41;;;6.87;49.06
40982;BME280;26708;50.304;19.028;2023-05-01T00:52:23;98559.34;;;6.69;49.06
40982;BME280;26708;50.304;19.028;2023-05-01T00:54:30;98701.84;;;7.57;49.31
40982;BME280;26708;50.304;19.028;2023-05-01T00:56:35;98627.34;;;6.95;49.36
40982;BME280;26708;50.304;19.028;2023-05-01T00:58:40;98781.28;;;7.93;49.56
40982;BME280;26708;50.304;19.028;2023-05-01T01:00:52;98845.75;;;8.09;49.38
40982;BME280;26708;50.304;19.028;2023-05-01T01:02:56;98870.56;;;8.47;49.52
40982;BME280;26708;50.304;19.028;2023-05-01T01:05:01;98824.09;;;8.14;49.74
40982;BME280;26708;50.304;19.028;2023-05-01T01:07:18;98541.72;;;6.44;49.76
40982;BME280;26708;50.304;19.028;2023-05-01T01:09:35;98811.84;;;8.06;49.96
40982;BME280;26708;50.304;19.028;2023-05-01T01:12:05;98789.06;;;7.91;50.10
40982;BME280;26708;50.304;19.028;2023-05-01T01:14:26;98831.88;;;8.11;50.23
40982;BME280;26708;50.304;19.028;2023-05-01T01:16:44;98871.25;;;8.34;49.92
40982;BME280;26708;50.304;19.028;2023-05-01T01:19:01;98871.28;;;8.35;50.06
40982;BME280;26708;50.304;19.028;2023-05-01T01:21:24;98754.03;;;7.66;50.18
40982;BME280;26708;50.304;19.028;2023-05-01T01:23:52;98855.47;;;8.23;50.11
40982;BME280;26708;50.304;19.028;2023-05-01T01:26:35;98763.31;;;7.46;50.47
40982;BME280;26708;50.304;19.028;2023-05-01T01:32:02;98699.69;;;7.21;50.63
40982;BME280;26708;50.304;19.028;2023-05-01T01:34:32;98809.00;;;7.88;51.01
40982;BME280;26708;50.304;19.028;2023-05-01T01:36:43;98682.88;;;7.00;50.95
40982;BME280;26708;50.304;19.028;2023-05-01T01:38:59;98786.22;;;7.72;50.77
40982;BME280;26708;50.304;19.028;2023-05-01T01:41:21;98821.97;;;7.83;50.71
40982;BME280;26708;50.304;19.028;2023-05-01T01:43:37;98612.16;;;6.64;50.81
40982;BME280;26708;50.304;19.028;2023-05-01T01:45:47;98639.34;;;6.85;51.07
40982;BME280;26708;50.304;19.028;2023-05-01T01:48:04;98849.31;;;8.17;50.89
40982;BME280;26708;50.304;19.028;2023-05-01T01:50:19;98872.78;;;8.17;51.03
40982;BME280;26708;50.304;19.028;2023-05-01T01:52:29;98624.63;;;6.87;50.82
40982;BME280;26708;50.304;19.028;2023-05-01T01:54:42;98781.69;;;7.56;51.10
40982;BME280;26708;50.304;19.028;2023-05-01T01:56:55;98672.31;;;6.86;50.95
40982;BME280;26708;50.304;19.028;2023-05-01T01:59:06;98864.84;;;8.05;51.31
40982;BME280;26708;50.304;19.028;2023-05-01T02:01:17;98713.59;;;7.26;51.41
40982;BME280;26708;50.304;19.028;2023-05-01T02:03:30;98812.34;;;7.77;51.58
40982;BME280;26708;50.304;19.028;2023-05-01T02:05:42;98840.38;;;7.97;51.66
40982;BME280;26708;50.304;19.028;2023-05-01T02:07:50;98788.75;;;7.65;51.73
40982;BME280;26708;50.304;19.028;2023-05-01T02:09:58;98706.56;;;7.18;51.94
40982;BME280;26708;50.304;19.028;2023-05-01T02:12:07;98838.50;;;7.85;52.01
40982;BME280;26708;50.304;19.028;2023-05-01T02:14:17;98712.38;;;6.99;52.10
40982;BME280;26708;50.304;19.028;2023-05-01T02:16:26;98829.75;;;7.79;52.26
40982;BME280;26708;50.304;19.028;2023-05-01T02:18:33;98770.16;;;7.38;52.13
40982;BME280;26708;50.304;19.028;2023-05-01T02:20:42;98837.47;;;7.72;52.25
40982;BME280;26708;50.304;19.028;2023-05-01T02:22:50;98752.59;;;7.22;52.17
40982;BME280;26708;50.304;19.028;2023-05-01T02:24:57;98586.44;;;6.22;51.95
40982;BME280;26708;50.304;19.028;2023-05-01T02:27:10;98554.16;;;6.05;51.97
40982;BME280;26708;50.304;19.028;2023-05-01T02:29:20;98694.47;;;6.63;52.04
40982;BME280;26708;50.304;19.028;2023-05-01T02:31:33;98593.13;;;6.08;52.10
40982;BME280;26708;50.304;19.028;2023-05-01T02:33:39;98496.22;;;5.54;52.38
40982;BME280;26708;50.304;19.028;2023-05-01T02:35:48;98655.97;;;6.38;52.29
40982;BME280;26708;50.304;19.028;2023-05-01T02:37:53;98539.66;;;5.66;52.24
40982;BME280;26708;50.304;19.028;2023-05-01T02:39:59;98425.38;;;5.06;52.49
40982;BME280;26708;50.304;19.028;2023-05-01T02:42:07;98850.66;;;7.24;52.61
40982;BME280;26708;50.304;19.028;2023-05-01T02:44:15;98676.09;;;6.50;52.68
40982;BME280;26708;50.304;19.028;2023-05-01T02:46:26;98770.53;;;7.02;52.79
40982;BME280;26708;50.304;19.028;2023-05-01T02:48:37;98810.78;;;7.27;52.52
40982;BME280;26708;50.304;19.028;2023-05-01T02:50:43;98569.00;;;5.60;52.54
40982;BME280;26708;50.304;19.028;2023-05-01T02:52:53;98777.47;;;7.02;52.79
40982;BME280;26708;50.304;19.028;2023-05-01T02:55:11;98579.75;;;5.83;52.50
40982;BME280;26708;50.304;19.028;2023-05-01T02:57:17;98779.94;;;6.93;52.63
40982;BME280;26708;50.304;19.028;2023-05-01T02:59:25;98689.81;;;6.43;52.88
40982;BME280;26708;50.304;19.028;2023-05-01T03:01:31;98632.91;;;6.04;52.82
40982;BME280;26708;50.304;19.028;2023-05-01T03:03:35;98763.47;;;6.94;52.96
40982;BME280;26708;50.304;19.028;2023-05-01T03:05:41;98815.06;;;7.22;52.98
40982;BME280;26708;50.304;19.028;2023-05-01T03:07:49;98747.81;;;6.89;52.90
40982;BME280;26708;50.304;19.028;2023-05-01T03:09:53;98643.63;;;6.24;52.87
40982;BME280;26708;50.304;19.028;2023-05-01T03:11:58;98750.25;;;6.80;52.80
40982;BME280;26708;50.304;19.028;2023-05-01T03:14:04;98603.44;;;6.02;52.66
40982;BME280;26708;50.304;19.028;2023-05-01T03:16:09;98508.91;;;5.36;52.69
40982;BME280;26708;50.304;19.028;2023-05-01T03:18:13;98740.66;;;6.76;52.79
40982;BME280;26708;50.304;19.028;2023-05-01T03:20:19;98769.31;;;6.79;52.71
40982;BME280;26708;50.304;19.028;2023-05-01T03:22:27;98808.97;;;7.20;53.08
40982;BME280;26708;50.304;19.028;2023-05-01T03:24:35;98770.56;;;7.04;53.08
40982;BME280;26708;50.304;19.028;2023-05-01T03:26:41;98812.44;;;7.22;52.83
40982;BME280;26708;50.304;19.028;2023-05-01T03:28:45;98804.47;;;7.11;53.02
40982;BME280;26708;50.304;19.028;2023-05-01T03:30:50;98818.41;;;7.15;53.24
40982;BME280;26708;50.304;19.028;2023-05-01T03:32:56;98682.66;;;6.27;53.14
40982;BME280;26708;50.304;19.028;2023-05-01T03:35:05;98667.94;;;6.27;52.99
40982;BME280;26708;50.304;19.028;2023-05-01T03:37:12;98652.25;;;6.23;53.15
40982;BME280;26708;50.304;19.028;2023-05-01T03:39:17;98733.56;;;6.69;53.00
40982;BME280;26708;50.304;19.028;2023-05-01T03:41:51;98808.78;;;7.09;53.15
40982;BME280;26708;50.304;19.028;2023-05-01T03:44:01;98671.09;;;6.11;53.26
40982;BME280;26708;50.304;19.028;2023-05-01T03:46:15;98643.41;;;6.12;53.60
40982;BME280;26708;50.304;19.028;2023-05-01T03:48:20;98600.72;;;5.95;53.81
40982;BME280;26708;50.304;19.028;2023-05-01T03:50:24;98546.53;;;5.62;53.79
40982;BME280;26708;50.304;19.028;2023-05-01T03:52:30;98623.25;;;5.96;53.83
40982;BME280;26708;50.304;19.028;2023-05-01T03:54:35;98576.16;;;5.75;53.83
40982;BME280;26708;50.304;19.028;2023-05-01T03:57:09;98664.41;;;6.24;53.94
40982;BME280;26708;50.304;19.028;2023-05-01T03:59:16;98650.31;;;6.11;53.73
40982;BME280;26708;50.304;19.028;2023-05-01T04:01:21;98666.13;;;6.23;53.70
40982;BME280;26708;50.304;19.028;2023-05-01T04:03:27;98511.34;;;5.29;53.88
40982;BME280;26708;50.304;19.028;2023-05-01T04:05:32;98514.22;;;5.45;53.94
40982;BME280;26708;50.304;19.028;2023-05-01T04:07:38;98686.16;;;6.30;54.10
40982;BME280;26708;50.304;19.028;2023-05-01T04:09:44;98492.19;;;5.19;54.05
40982;BME280;26708;50.304;19.028;2023-05-01T04:11:50;98428.50;;;4.87;54.08
40982;BME280;26708;50.304;19.028;2023-05-01T04:13:58;98511.38;;;5.30;53.96
40982;BME280;26708;50.304;19.028;2023-05-01T04:16:04;98565.16;;;5.91;53.98
40982;BME280;26708;50.304;19.028;2023-05-01T04:18:13;98669.03;;;6.43;53.66
40982;BME280;26708;50.304;19.028;2023-05-01T04:20:20;98569.69;;;6.04;53.45
40982;BME280;26708;50.304;19.028;2023-05-01T04:22:27;98719.06;;;6.82;53.54
40982;BME280;26708;50.304;19.028;2023-05-01T04:24:33;98457.28;;;5.54;53.27
40982;BME280;26708;50.304;19.028;2023-05-01T04:26:39;98787.66;;;7.48;53.28
40982;BME280;26708;50.304;19.028;2023-05-01T04:28:44;98717.66;;;7.05;53.12
40982;BME280;26708;50.304;19.028;2023-05-01T04:30:59;98800.53;;;7.39;53.23
40982;BME280;26708;50.304;19.028;2023-05-01T04:33:07;98392.84;;;5.25;52.68
40982;BME280;26708;50.304;19.028;2023-05-01T04:35:14;98783.38;;;7.53;52.40
40982;BME280;26708;50.304;19.028;2023-05-01T04:37:22;98439.91;;;5.49;52.30
40982;BME280;26708;50.304;19.028;2023-05-01T04:39:30;98618.16;;;6.58;52.35
40982;BME280;26708;50.304;19.028;2023-05-01T04:41:35;98603.06;;;6.35;52.13
40982;BME280;26708;50.304;19.028;2023-05-01T04:43:41;98643.56;;;6.77;52.13
40982;BME280;26708;50.304;19.028;2023-05-01T04:45:48;98716.97;;;7.18;51.63
40982;BME280;26708;50.304;19.028;2023-05-01T04:47:55;98752.66;;;7.25;50.65
40982;BME280;26708;50.304;19.028;2023-05-01T04:50:01;98532.44;;;6.02;51.19
40982;BME280;26708;50.304;19.028;2023-05-01T04:52:07;98583.91;;;6.27;51.63
40982;BME280;26708;50.304;19.028;2023-05-01T04:54:31;98715.09;;;7.08;50.75
40982;BME280;26708;50.304;19.028;2023-05-01T04:56:37;98572.63;;;6.26;51.20
40982;BME280;26708;50.304;19.028;2023-05-01T04:58:41;98793.03;;;7.60;51.22
40982;BME280;26708;50.304;19.028;2023-05-01T05:00:50;98690.91;;;7.15;50.66
40982;BME280;26708;50.304;19.028;2023-05-01T05:03:05;98793.25;;;7.79;49.63
40982;BME280;26708;50.304;19.028;2023-05-01T05:05:17;98403.81;;;5.65;49.89
40982;BME280;26708;50.304;19.028;2023-05-01T05:07:27;98480.72;;;6.18;49.04
40982;BME280;26708;50.304;19.028;2023-05-01T05:09:52;98605.09;;;7.21;48.68
40982;BME280;26708;50.304;19.028;2023-05-01T05:11:58;98560.88;;;7.24;48.31
40982;BME280;26708;50.304;19.028;2023-05-01T05:14:05;98650.22;;;8.04;47.77
40982;BME280;26708;50.304;19.028;2023-05-01T05:16:11;98735.22;;;8.86;46.79
40982;BME280;26708;50.304;19.028;2023-05-01T05:18:29;98632.31;;;8.42;45.03
40982;BME280;26708;50.304;19.028;2023-05-01T05:20:37;98729.31;;;9.15;43.73
40982;BME280;26708;50.304;19.028;2023-05-01T05:22:46;98425.72;;;7.42;43.64
40982;BME280;26708;50.304;19.028;2023-05-01T05:25:04;98387.38;;;7.23;43.20
40982;BME280;26708;50.304;19.028;2023-05-01T05:27:09;98725.03;;;9.26;44.08
40982;BME280;26708;50.304;19.028;2023-05-01T05:29:15;98508.56;;;7.96;43.87
40982;BME280;26708;50.304;19.028;2023-05-01T05:31:37;98598.66;;;8.82;43.78
40982;BME280;26708;50.304;19.028;2023-05-01T05:33:45;98603.94;;;9.00;43.40
40982;BME280;26708;50.304;19.028;2023-05-01T05:35:58;98592.66;;;9.04;42.19
40982;BME280;26708;50.304;19.028;2023-05-01T05:38:09;98625.03;;;9.62;41.91
40982;BME280;26708;50.304;19.028;2023-05-01T05:40:17;98815.28;;;10.62;41.84
40982;BME280;26708;50.304;19.028;2023-05-01T05:45:08;98763.81;;;10.80;41.19
40982;BME280;26708;50.304;19.028;2023-05-01T05:47:14;98671.34;;;10.30;40.73
40982;BME280;26708;50.304;19.028;2023-05-01T05:49:38;98776.03;;;11.10;40.50
40982;BME280;26708;50.304;19.028;2023-05-01T05:51:43;98689.63;;;10.80;40.10
40982;BME280;26708;50.304;19.028;2023-05-01T05:53:48;98725.38;;;11.15;39.94
40982;BME280;26708;50.304;19.028;2023-05-01T05:55:54;98764.59;;;11.56;39.86
40982;BME280;26708;50.304;19.028;2023-05-01T05:57:59;98573.53;;;10.84;39.84
40982;BME280;26708;50.304;19.028;2023-05-01T06:00:05;98773.00;;;12.29;38.62
40982;BME280;26708;50.304;19.028;2023-05-01T06:02:17;98535.91;;;11.19;37.13
40982;BME280;26708;50.304;19.028;2023-05-01T06:04:22;98489.66;;;11.11;37.42
40982;BME280;26708;50.304;19.028;2023-05-01T06:06:32;98565.91;;;12.02;36.49
40982;BME280;26708;50.304;19.028;2023-05-01T06:08:38;98729.34;;;13.23;36.33
40982;BME280;26708;50.304;19.028;2023-05-01T06:10:48;98574.22;;;12.48;35.39
40982;BME280;26708;50.304;19.028;2023-05-01T06:12:53;98647.41;;;12.84;35.21
40982;BME280;26708;50.304;19.028;2023-05-01T06:14:58;98766.59;;;13.63;34.73
40982;BME280;26708;50.304;19.028;2023-05-01T06:17:05;98549.81;;;12.38;34.22
40982;BME280;26708;50.304;19.028;2023-05-01T06:19:10;98730.06;;;13.40;33.93
40982;BME280;26708;50.304;19.028;2023-05-01T06:21:16;98771.84;;;13.64;34.08
40982;BME280;26708;50.304;19.028;2023-05-01T06:23:24;98777.84;;;13.75;33.97
40982;BME280;26708;50.304;19.028;2023-05-01T06:25:51;98775.88;;;13.92;33.46
40982;BME280;26708;50.304;19.028;2023-05-01T06:27:56;98607.81;;;12.99;32.91
40982;BME280;26708;50.304;19.028;2023-05-01T06:30:01;98774.91;;;14.01;32.65
40982;BME280;26708;50.304;19.028;2023-05-01T06:32:08;98519.09;;;12.49;33.00
40982;BME280;26708;50.304;19.028;2023-05-01T06:34:15;98768.59;;;14.15;32.81
40982;BME280;26708;50.304;19.028;2023-05-01T06:36:27;98766.03;;;14.11;32.69
40982;BME280;26708;50.304;19.028;2023-05-01T06:38:34;98746.19;;;13.83;32.64
40982;BME280;26708;50.304;19.028;2023-05-01T06:40:39;98761.09;;;13.82;32.02
40982;BME280;26708;50.304;19.028;2023-05-01T06:42:47;98702.16;;;13.26;32.80
40982;BME280;26708;50.304;19.028;2023-05-01T06:44:53;98502.06;;;12.05;32.89
40982;BME280;26708;50.304;19.028;2023-05-01T06:47:06;98734.63;;;13.22;33.08
40982;BME280;26708;50.304;19.028;2023-05-01T06:49:11;98487.31;;;11.88;32.93
40982;BME280;26708;50.304;19.028;2023-05-01T06:51:16;98745.97;;;13.25;33.12
40982;BME280;26708;50.304;19.028;2023-05-01T06:53:21;98605.72;;;12.51;32.94
40982;BME280;26708;50.304;19.028;2023-05-01T06:55:28;98631.59;;;12.87;33.35
40982;BME280;26708;50.304;19.028;2023-05-01T06:57:33;98631.44;;;13.02;32.67
40982;BME280;26708;50.304;19.028;2023-05-01T06:59:39;98753.97;;;13.90;32.77
40982;BME280;26708;50.304;19.028;2023-05-01T07:01:44;98617.25;;;13.19;32.14
40982;BME280;26708;50.304;19.028;2023-05-01T07:03:48;98644.00;;;13.50;31.63
40982;BME280;26708;50.304;19.028;2023-05-01T07:05:54;98573.41;;;13.23;31.64
40982;BME280;26708;50.304;19.028;2023-05-01T07:07:59;98530.50;;;13.21;31.75
40982;BME280;26708;50.304;19.028;2023-05-01T07:10:05;98684.16;;;14.29;30.84
40982;BME280;26708;50.304;19.028;2023-05-01T07:12:19;98605.72;;;13.90;30.84
40982;BME280;26708;50.304;19.028;2023-05-01T07:14:24;98699.44;;;14.59;30.78
40982;BME280;26708;50.304;19.028;2023-05-01T07:16:29;98744.53;;;14.95;30.88
40982;BME280;26708;50.304;19.028;2023-05-01T07:18:34;98700.06;;;14.76;30.25
40982;BME280;26708;50.304;19.028;2023-05-01T07:20:39;98693.63;;;14.92;29.99
40982;BME280;26708;50.304;19.028;2023-05-01T07:22:43;98534.34;;;14.14;30.08
40982;BME280;26708;50.304;19.028;2023-05-01T07:24:49;98675.81;;;15.06;29.75
40982;BME280;26708;50.304;19.028;2023-05-01T07:26:57;98670.50;;;15.09;30.00
40982;BME280;26708;50.304;19.028;2023-05-01T07:29:20;98580.03;;;14.58;29.28
40982;BME280;26708;50.304;19.028;2023-05-01T07:31:34;98706.13;;;15.31;28.39
40982;BME280;26708;50.304;19.028;2023-05-01T07:33:43;98665.97;;;15.14;28.32
40982;BME280;26708;50.304;19.028;2023-05-01T07:35:48;98597.50;;;14.65;28.72
40982;BME280;26708;50.304;19.028;2023-05-01T07:37:54;98746.75;;;15.66;28.39
40982;BME280;26708;50.304;19.028;2023-05-01T07:40:10;98655.13;;;15.29;28.08
40982;BME280;26708;50.304;19.028;2023-05-01T07:42:15;98582.78;;;15.01;27.42
40982;BME280;26708;50.304;19.028;2023-05-01T07:44:24;98672.59;;;15.36;27.48
40982;BME280;26708;50.304;19.028;2023-05-01T07:49:25;98676.81;;;15.44;27.59
40982;BME280;26708;50.304;19.028;2023-05-01T07:51:31;98595.38;;;14.84;27.19
40982;BME280;26708;50.304;19.028;2023-05-01T07:53:39;98572.03;;;14.64;27.32
40982;BME280;26708;50.304;19.028;2023-05-01T07:55:44;98442.72;;;13.82;27.38
40982;BME280;26708;50.304;19.028;2023-05-01T07:57:52;98522.00;;;14.16;27.73
40982;BME280;26708;50.304;19.028;2023-05-01T08:00:10;98667.03;;;15.05;27.97
40982;BME280;26708;50.304;19.028;2023-05-01T08:02:30;98517.41;;;14.27;28.10
40982;BME280;26708;50.304;19.028;2023-05-01T08:04:36;98423.31;;;13.89;28.33
40982;BME280;26708;50.304;19.028;2023-05-01T08:06:40;98473.81;;;14.11;28.52
40982;BME280;26708;50.304;19.028;2023-05-01T08:08:45;98438.94;;;13.97;27.92
40982;BME280;26708;50.304;19.028;2023-05-01T08:10:53;98607.38;;;14.98;27.65
40982;BME280;26708;50.304;19.028;2023-05-01T08:12:58;98671.66;;;15.38;27.65
40982;BME280;26708;50.304;19.028;2023-05-01T08:15:08;98594.56;;;14.80;27.50
40982;BME280;26708;50.304;19.028;2023-05-01T08:17:16;98630.94;;;15.09;27.61
40982;BME280;26708;50.304;19.028;2023-05-01T08:19:23;98724.44;;;15.81;28.00
40982;BME280;26708;50.304;19.028;2023-05-01T08:21:31;98661.72;;;15.51;28.20
40982;BME280;26708;50.304;19.028;2023-05-01T08:23:36;98724.03;;;16.02;27.69
40982;BME280;26708;50.304;19.028;2023-05-01T08:25:41;98736.41;;;16.00;27.46
40982;BME280;26708;50.304;19.028;2023-05-01T08:27:47;98701.66;;;15.77;27.84
40982;BME280;26708;50.304;19.028;2023-05-01T08:29:53;98725.16;;;15.90;28.13
40982;BME280;26708;50.304;19.028;2023-05-01T08:32:00;98675.38;;;15.71;28.17
40982;BME280;26708;50.304;19.028;2023-05-01T08:34:05;98691.84;;;15.82;28.73
40982;BME280;26708;50.304;19.028;2023-05-01T08:36:10;98651.84;;;15.62;28.31
40982;BME280;26708;50.304;19.028;2023-05-01T08:38:14;98743.44;;;15.99;27.81
40982;BME280;26708;50.304;19.028;2023-05-01T08:40:19;98715.63;;;15.82;27.88
40982;BME280;26708;50.304;19.028;2023-05-01T08:42:27;98533.09;;;14.78;27.67
40982;BME280;26708;50.304;19.028;2023-05-01T08:44:37;98671.47;;;15.47;27.53
40982;BME280;26708;50.304;19.028;2023-05-01T08:46:46;98642.97;;;15.22;27.93
40982;BME280;26708;50.304;19.028;2023-05-01T08:49:00;98712.84;;;15.47;27.81
40982;BME280;26708;50.304;19.028;2023-05-01T08:51:09;98692.34;;;15.15;27.49
40982;BME280;26708;50.304;19.028;2023-05-01T08:53:19;98712.41;;;15.22;27.70
40982;BME280;26708;50.304;19.028;2023-05-01T08:55:29;98590.97;;;14.36;28.27
40982;BME280;26708;50.304;19.028;2023-05-01T08:57:59;98297.66;;;12.52;27.82
40982;BME280;26708;50.304;19.028;2023-05-01T09:00:13;98645.03;;;14.58;27.10
40982;BME280;26708;50.304;19.028;2023-05-01T09:02:23;98541.63;;;13.95;27.19
40982;BME280;26708;50.304;19.028;2023-05-01T09:04:33;98712.09;;;14.92;26.77
40982;BME280;26708;50.304;19.028;2023-05-01T09:06:40;98646.81;;;14.56;26.94
40982;BME280;26708;50.304;19.028;2023-05-01T09:08:45;98701.53;;;14.92;28.06
40982;BME280;26708;50.304;19.028;2023-05-01T09:10:51;98654.47;;;14.71;27.86
40982;BME280;26708;50.304;19.028;2023-05-01T09:13:03;98524.94;;;13.96;27.91
40982;BME280;26708;50.304;19.028;2023-05-01T09:15:11;98593.50;;;14.43;26.40
40982;BME280;26708;50.304;19.028;2023-05-01T09:17:16;98656.13;;;14.76;26.49
40982;BME280;26708;50.304;19.028;2023-05-01T09:19:24;98698.78;;;15.01;26.58
40982;BME280;26708;50.304;19.028;2023-05-01T09:21:32;98697.91;;;14.99;26.87
40982;BME280;26708;50.304;19.028;2023-05-01T09:23:37;98562.25;;;14.21;26.43
40982;BME280;26708;50.304;19.028;2023-05-01T09:25:42;98687.16;;;15.11;26.27
40982;BME280;26708;50.304;19.028;2023-05-01T09:27:48;98626.09;;;14.85;24.73
40982;BME280;26708;50.304;19.028;2023-05-01T09:29:53;98551.44;;;14.39;25.15
40982;BME280;26708;50.304;19.028;2023-05-01T09:32:12;98583.22;;;14.75;25.31
40982;BME280;26708;50.304;19.028;2023-05-01T09:34:21;98678.03;;;15.27;24.59
40982;BME280;26708;50.304;19.028;2023-05-01T09:36:34;98461.69;;;14.02;25.22
40982;BME280;26708;50.304;19.028;2023-05-01T09:41:04;98517.16;;;14.40;25.27
40982;BME280;26708;50.304;19.028;2023-05-01T09:43:30;98584.50;;;15.02;25.38
40982;BME280;26708;50.304;19.028;2023-05-01T09:49:03;98406.44;;;14.01;23.85
40982;BME280;26708;50.304;19.028;2023-05-01T09:51:22;98431.22;;;14.36;23.12
40982;BME280;26708;50.304;19.028;2023-05-01T09:53:39;98658.41;;;15.82;23.81
40982;BME280;26708;50.304;19.028;2023-05-01T09:55:59;98659.13;;;15.89;24.46
40982;BME280;26708;50.304;19.028;2023-05-01T09:58:04;98573.94;;;15.43;24.95
40982;BME280;26708;50.304;19.028;2023-05-01T10:00:10;98610.91;;;15.82;24.96
40982;BME280;26708;50.304;19.028;2023-05-01T10:02:27;98639.44;;;16.05;24.52
40982;BME280;26708;50.304;19.028;2023-05-01T10:04:33;98666.53;;;16.13;24.31
40982;BME280;26708;50.304;19.028;2023-05-01T10:06:39;98658.63;;;16.13;23.58
40982;BME280;26708;50.304;19.028;2023-05-01T10:08:50;98578.75;;;15.65;23.74
40982;BME280;26708;50.304;19.028;2023-05-01T10:11:02;98657.94;;;16.05;23.58
40982;BME280;26708;50.304;19.028;2023-05-01T10:13:15;98653.44;;;16.08;23.92
40982;BME280;26708;50.304;19.028;2023-05-01T10:15:35;98532.53;;;15.48;24.20
40982;BME280;26708;50.304;19.028;2023-05-01T10:17:58;98473.25;;;15.24;24.34
40982;BME280;26708;50.304;19.028;2023-05-01T10:20:04;98609.81;;;15.92;23.21
40982;BME280;26708;50.304;19.028;2023-05-01T10:22:11;98628.66;;;16.13;21.58
40982;BME280;26708;50.304;19.028;2023-05-01T10:24:18;98520.38;;;15.41;23.11
40982;BME280;26708;50.304;19.028;2023-05-01T10:26:24;98416.78;;;14.95;22.17
40982;BME280;26708;50.304;19.028;2023-05-01T10:28:30;98637.34;;;16.18;21.01
40982;BME280;26708;50.304;19.028;2023-05-01T10:30:37;98416.69;;;15.01;22.23
40982;BME280;26708;50.304;19.028;2023-05-01T10:32:45;98372.34;;;14.78;21.88
40982;BME280;26708;50.304;19.028;2023-05-01T10:34:59;98488.94;;;15.32;22.31
40982;BME280;26708;50.304;19.028;2023-05-01T10:37:12;98588.47;;;16.01;22.56
40982;BME280;26708;50.304;19.028;2023-05-01T10:39:34;98424.25;;;15.16;22.42
40982;BME280;26708;50.304;19.028;2023-05-01T10:42:05;98621.91;;;16.38;21.05
40982;BME280;26708;50.304;19.028;2023-05-01T10:44:20;98548.94;;;15.98;21.14
40982;BME280;26708;50.304;19.028;2023-05-01T10:46:26;98480.22;;;15.65;21.34
40982;BME280;26708;50.304;19.028;2023-05-01T10:48:53;98432.19;;;15.51;22.30
40982;BME280;26708;50.304;19.028;2023-05-01T10:51:07;98433.22;;;15.44;22.60
40982;BME280;26708;50.304;19.028;2023-05-01T10:53:17;98568.72;;;16.50;22.27
40982;BME280;26708;50.304;19.028;2023-05-01T10:55:36;98565.84;;;16.59;21.86
40982;BME280;26708;50.304;19.028;2023-05-01T10:57:43;98416.06;;;15.63;22.25
40982;BME280;26708;50.304;19.028;2023-05-01T11:00:23;98249.53;;;14.71;22.66
40982;BME280;26708;50.304;19.028;2023-05-01T11:02:29;98584.72;;;16.79;23.64
40982;BME280;26708;50.304;19.028;2023-05-01T11:04:48;98599.81;;;17.06;22.81
40982;BME280;26708;50.304;19.028;2023-05-01T11:07:15;98593.63;;;17.07;23.25
40982;BME280;26708;50.304;19.028;2023-05-01T11:09:36;98589.81;;;17.17;23.26
40982;BME280;26708;50.304;19.028;2023-05-01T11:11:47;98416.94;;;16.28;22.61
40982;BME280;26708;50.304;19.028;2023-05-01T11:13:56;98549.75;;;17.00;22.40
40982;BME280;26708;50.304;19.028;2023-05-01T11:18:48;98552.00;;;17.14;22.10
40982;BME280;26708;50.304;19.028;2023-05-01T11:20:52;98564.66;;;17.03;22.43
40982;BME280;26708;50.304;19.028;2023-05-01T11:22:58;98565.63;;;17.29;21.43
40982;BME280;26708;50.304;19.028;2023-05-01T11:25:16;98305.63;;;15.80;22.43
40982;BME280;26708;50.304;19.028;2023-05-01T11:27:30;98499.50;;;17.00;22.25
40982;BME280;26708;50.304;19.028;2023-05-01T11:29:36;98493.66;;;16.89;21.74
40982;BME280;26708;50.304;19.028;2023-05-01T11:31:47;98565.16;;;17.46;22.10
40982;BME280;26708;50.304;19.028;2023-05-01T11:33:54;98467.94;;;16.94;21.45
40982;BME280;26708;50.304;19.028;2023-05-01T11:36:02;98345.50;;;16.33;21.74
40982;BME280;26708;50.304;19.028;2023-05-01T11:38:15;98546.56;;;17.76;21.64
40982;BME280;26708;50.304;19.028;2023-05-01T11:40:23;98504.88;;;17.55;21.81
40982;BME280;26708;50.304;19.028;2023-05-01T11:42:33;98500.22;;;17.63;21.01